Weather at Whitehouse Farm Helicopter Base

Public forecast

Using degrees Celsius for public forecast. Weather courtesy of forecast.io.

Closest aviation weather report (METAR) to Whitehouse Farm Helicopter Base

Closest report is RNAS Yeovilton, 11.3 nm (21.0 km) NE. Retrieved 2021/08/04 14:50 UTC (17 minutes ago):

EGDY 041450Z 21009KT 9999 FEW040 SCT060 21/12 Q1012 NOSIG RMK BLU BLU

Closest aviation forecast (TAF) to Whitehouse Farm Helicopter Base

Forecast is more than 12 hours old.

Closest forecast is RNAS Yeovilton, 11.3 nm (21.0 km) NE. Retrieved 2020/10/05 06:30 UTC (10 months ago):

TAF TAF EGDY 051025Z 0506/0518 CNL